Terminal Aerodrome Forecast
Issued by NWS North Platte, NE

Home | Current Version | Previous Version | Text Only | Print | Product List | Glossary Off
Versions: 1 2 3 4 5 6 7 8 9 10 11 12 13 14 15 16 17 18 19 20 21

000
FTUS43 KLBF 151148 CCA
TAFVTN
TAF COR
KVTN 151148Z 1512/1612 10009KT P6SM BKN070
      TEMPO 1512/1514 BKN012
     FM151500 13007KT P6SM BKN150
     FM152100 13009KT P6SM VCTS BKN100CB
      TEMPO 1523/1603 4SM TSRAGS BKN040CB
     FM160700 34006KT P6SM BKN080
     FM161000 33006KT P6SM BKN012=

USA.gov is the U.S. government's official web portal to all federal, state and local government web resources and services.